sensor_id;sensor_type;location;lat;lon;timestamp;P1;durP1;ratioP1;P2;durP2;ratioP2
22929;SDS011;11630;42.660;23.292;2022-11-20T00:01:52;3.87;;;1.80;;
22929;SDS011;11630;42.660;23.292;2022-11-20T00:04:22;1.10;;;0.63;;
22929;SDS011;11630;42.660;23.292;2022-11-20T00:06:53;4.90;;;1.37;;
22929;SDS011;11630;42.660;23.292;2022-11-20T00:09:24;1.57;;;1.00;;
22929;SDS011;11630;42.660;23.292;2022-11-20T00:11:54;4.30;;;1.17;;
22929;SDS011;11630;42.660;23.292;2022-11-20T00:14:26;2.73;;;1.10;;
22929;SDS011;11630;42.660;23.292;2022-11-20T00:16:57;7.10;;;1.83;;
22929;SDS011;11630;42.660;23.292;2022-11-20T00:19:28;3.83;;;1.40;;
22929;SDS011;11630;42.660;23.292;2022-11-20T00:21:58;0.70;;;0.70;;
22929;SDS011;11630;42.660;23.292;2022-11-20T00:24:29;2.27;;;1.17;;
22929;SDS011;11630;42.660;23.292;2022-11-20T00:26:59;9.97;;;0.97;;
22929;SDS011;11630;42.660;23.292;2022-11-20T00:29:30;3.70;;;1.10;;
22929;SDS011;11630;42.660;23.292;2022-11-20T00:32:01;1.80;;;1.40;;
22929;SDS011;11630;42.660;23.292;2022-11-20T00:34:36;5.23;;;1.13;;
22929;SDS011;11630;42.660;23.292;2022-11-20T00:37:07;2.13;;;0.70;;
22929;SDS011;11630;42.660;23.292;2022-11-20T00:39:38;1.50;;;0.90;;
22929;SDS011;11630;42.660;23.292;2022-11-20T00:42:09;2.83;;;0.87;;
22929;SDS011;11630;42.660;23.292;2022-11-20T00:44:40;3.93;;;0.90;;
22929;SDS011;11630;42.660;23.292;2022-11-20T00:47:11;3.00;;;1.23;;
22929;SDS011;11630;42.660;23.292;2022-11-20T00:49:41;2.87;;;1.47;;
22929;SDS011;11630;42.660;23.292;2022-11-20T00:52:12;2.23;;;1.33;;
22929;SDS011;11630;42.660;23.292;2022-11-20T00:54:42;4.27;;;1.20;;
22929;SDS011;11630;42.660;23.292;2022-11-20T00:57:12;1.33;;;1.10;;
22929;SDS011;11630;42.660;23.292;2022-11-20T00:59:43;3.23;;;1.10;;
22929;SDS011;11630;42.660;23.292;2022-11-20T01:02:14;6.53;;;1.60;;
22929;SDS011;11630;42.660;23.292;2022-11-20T01:04:45;5.93;;;1.57;;
22929;SDS011;11630;42.660;23.292;2022-11-20T01:07:16;1.07;;;0.90;;
22929;SDS011;11630;42.660;23.292;2022-11-20T01:09:50;4.37;;;1.13;;
22929;SDS011;11630;42.660;23.292;2022-11-20T01:12:21;6.93;;;1.40;;
22929;SDS011;11630;42.660;23.292;2022-11-20T01:14:52;4.90;;;1.47;;
22929;SDS011;11630;42.660;23.292;2022-11-20T01:17:23;4.57;;;1.60;;
22929;SDS011;11630;42.660;23.292;2022-11-20T01:19:53;3.93;;;0.97;;
22929;SDS011;11630;42.660;23.292;2022-11-20T01:22:24;1.37;;;1.07;;
22929;SDS011;11630;42.660;23.292;2022-11-20T01:24:57;3.80;;;1.00;;
22929;SDS011;11630;42.660;23.292;2022-11-20T01:27:28;2.90;;;1.03;;
22929;SDS011;11630;42.660;23.292;2022-11-20T01:29:59;0.60;;;0.60;;
22929;SDS011;11630;42.660;23.292;2022-11-20T01:32:30;7.80;;;1.00;;
22929;SDS011;11630;42.660;23.292;2022-11-20T01:35:02;2.57;;;1.30;;
22929;SDS011;11630;42.660;23.292;2022-11-20T01:37:33;2.30;;;0.93;;
22929;SDS011;11630;42.660;23.292;2022-11-20T01:40:05;2.03;;;1.20;;
22929;SDS011;11630;42.660;23.292;2022-11-20T01:42:36;5.60;;;1.20;;
22929;SDS011;11630;42.660;23.292;2022-11-20T01:48:35;1.17;;;0.87;;
22929;SDS011;11630;42.660;23.292;2022-11-20T01:51:06;1.90;;;1.00;;
22929;SDS011;11630;42.660;23.292;2022-11-20T01:53:40;4.13;;;0.97;;
22929;SDS011;11630;42.660;23.292;2022-11-20T01:56:12;5.60;;;1.20;;
22929;SDS011;11630;42.660;23.292;2022-11-20T01:58:46;4.13;;;1.07;;
22929;SDS011;11630;42.660;23.292;2022-11-20T02:01:17;2.40;;;1.10;;
22929;SDS011;11630;42.660;23.292;2022-11-20T02:03:49;4.53;;;1.30;;
22929;SDS011;11630;42.660;23.292;2022-11-20T02:06:35;2.43;;;0.90;;
22929;SDS011;11630;42.660;23.292;2022-11-20T02:09:05;2.93;;;1.07;;
22929;SDS011;11630;42.660;23.292;2022-11-20T02:11:36;3.20;;;1.17;;
22929;SDS011;11630;42.660;23.292;2022-11-20T02:14:06;4.00;;;1.00;;
22929;SDS011;11630;42.660;23.292;2022-11-20T02:16:39;1.30;;;0.90;;
22929;SDS011;11630;42.660;23.292;2022-11-20T02:19:13;1.80;;;1.10;;
22929;SDS011;11630;42.660;23.292;2022-11-20T02:21:58;1.53;;;1.20;;
22929;SDS011;11630;42.660;23.292;2022-11-20T02:24:43;2.70;;;1.00;;
22929;SDS011;11630;42.660;23.292;2022-11-20T02:27:15;2.27;;;1.00;;
22929;SDS011;11630;42.660;23.292;2022-11-20T02:29:49;3.80;;;1.20;;
22929;SDS011;11630;42.660;23.292;2022-11-20T02:32:30;1.10;;;0.77;;
22929;SDS011;11630;42.660;23.292;2022-11-20T02:37:40;1.87;;;0.80;;
22929;SDS011;11630;42.660;23.292;2022-11-20T02:40:11;5.17;;;1.00;;
22929;SDS011;11630;42.660;23.292;2022-11-20T02:42:42;1.50;;;1.00;;
22929;SDS011;11630;42.660;23.292;2022-11-20T02:45:12;3.23;;;1.40;;
22929;SDS011;11630;42.660;23.292;2022-11-20T02:47:43;3.73;;;1.33;;
22929;SDS011;11630;42.660;23.292;2022-11-20T02:50:15;1.23;;;1.13;;
22929;SDS011;11630;42.660;23.292;2022-11-20T02:52:44;1.30;;;1.20;;
22929;SDS011;11630;42.660;23.292;2022-11-20T02:55:16;6.03;;;0.93;;
22929;SDS011;11630;42.660;23.292;2022-11-20T02:57:46;0.67;;;0.67;;
22929;SDS011;11630;42.660;23.292;2022-11-20T03:00:17;2.10;;;1.07;;
22929;SDS011;11630;42.660;23.292;2022-11-20T03:02:48;2.20;;;1.50;;
22929;SDS011;11630;42.660;23.292;2022-11-20T03:05:18;2.47;;;1.33;;
22929;SDS011;11630;42.660;23.292;2022-11-20T03:07:49;6.83;;;1.30;;
22929;SDS011;11630;42.660;23.292;2022-11-20T03:10:19;4.40;;;1.43;;
22929;SDS011;11630;42.660;23.292;2022-11-20T03:12:55;4.63;;;1.30;;
22929;SDS011;11630;42.660;23.292;2022-11-20T03:15:24;4.17;;;1.60;;
22929;SDS011;11630;42.660;23.292;2022-11-20T03:17:55;2.47;;;1.37;;
22929;SDS011;11630;42.660;23.292;2022-11-20T03:20:27;3.03;;;1.30;;
22929;SDS011;11630;42.660;23.292;2022-11-20T03:22:57;1.83;;;1.20;;
22929;SDS011;11630;42.660;23.292;2022-11-20T03:25:27;1.10;;;1.00;;
22929;SDS011;11630;42.660;23.292;2022-11-20T03:27:58;2.97;;;1.20;;
22929;SDS011;11630;42.660;23.292;2022-11-20T03:30:29;2.23;;;1.07;;
22929;SDS011;11630;42.660;23.292;2022-11-20T03:33:00;2.33;;;1.17;;
22929;SDS011;11630;42.660;23.292;2022-11-20T03:35:31;7.33;;;1.30;;
22929;SDS011;11630;42.660;23.292;2022-11-20T03:38:05;4.70;;;1.33;;
22929;SDS011;11630;42.660;23.292;2022-11-20T03:40:35;4.47;;;1.10;;
22929;SDS011;11630;42.660;23.292;2022-11-20T03:43:06;2.00;;;0.90;;
22929;SDS011;11630;42.660;23.292;2022-11-20T03:45:39;5.07;;;1.23;;
22929;SDS011;11630;42.660;23.292;2022-11-20T03:48:09;2.60;;;1.30;;
22929;SDS011;11630;42.660;23.292;2022-11-20T03:50:40;3.60;;;1.40;;
22929;SDS011;11630;42.660;23.292;2022-11-20T03:53:11;4.97;;;1.20;;
22929;SDS011;11630;42.660;23.292;2022-11-20T03:55:44;4.03;;;1.37;;
22929;SDS011;11630;42.660;23.292;2022-11-20T03:58:16;5.10;;;1.20;;
22929;SDS011;11630;42.660;23.292;2022-11-20T04:00:46;1.10;;;0.93;;
22929;SDS011;11630;42.660;23.292;2022-11-20T04:03:16;3.27;;;1.33;;
22929;SDS011;11630;42.660;23.292;2022-11-20T04:05:47;1.40;;;1.30;;
22929;SDS011;11630;42.660;23.292;2022-11-20T04:08:23;1.07;;;0.97;;
22929;SDS011;11630;42.660;23.292;2022-11-20T04:10:54;3.87;;;1.63;;
22929;SDS011;11630;42.660;23.292;2022-11-20T04:13:25;1.23;;;1.10;;
22929;SDS011;11630;42.660;23.292;2022-11-20T04:15:57;5.07;;;1.57;;
22929;SDS011;11630;42.660;23.292;2022-11-20T04:18:27;4.40;;;1.73;;
22929;SDS011;11630;42.660;23.292;2022-11-20T04:20:57;3.47;;;1.10;;
22929;SDS011;11630;42.660;23.292;2022-11-20T04:23:28;1.63;;;0.90;;
22929;SDS011;11630;42.660;23.292;2022-11-20T04:26:05;3.20;;;2.27;;
22929;SDS011;11630;42.660;23.292;2022-11-20T04:28:37;6.40;;;1.10;;
22929;SDS011;11630;42.660;23.292;2022-11-20T04:31:09;2.00;;;1.30;;
22929;SDS011;11630;42.660;23.292;2022-11-20T04:33:41;2.47;;;1.47;;
22929;SDS011;11630;42.660;23.292;2022-11-20T04:36:15;3.00;;;1.20;;
22929;SDS011;11630;42.660;23.292;2022-11-20T04:38:51;1.77;;;0.77;;
22929;SDS011;11630;42.660;23.292;2022-11-20T04:41:23;0.70;;;0.70;;
22929;SDS011;11630;42.660;23.292;2022-11-20T04:43:57;0.70;;;0.70;;
22929;SDS011;11630;42.660;23.292;2022-11-20T04:46:28;0.50;;;0.50;;
22929;SDS011;11630;42.660;23.292;2022-11-20T04:49:00;1.33;;;1.03;;
22929;SDS011;11630;42.660;23.292;2022-11-20T04:51:31;3.50;;;1.27;;
22929;SDS011;11630;42.660;23.292;2022-11-20T04:54:02;4.43;;;1.00;;
22929;SDS011;11630;42.660;23.292;2022-11-20T04:56:33;1.87;;;0.90;;
22929;SDS011;11630;42.660;23.292;2022-11-20T04:59:03;2.93;;;0.93;;
22929;SDS011;11630;42.660;23.292;2022-11-20T05:01:35;3.50;;;1.03;;
22929;SDS011;11630;42.660;23.292;2022-11-20T05:04:06;2.63;;;1.17;;
22929;SDS011;11630;42.660;23.292;2022-11-20T05:06:36;0.77;;;0.70;;
22929;SDS011;11630;42.660;23.292;2022-11-20T05:09:07;9.47;;;1.23;;
22929;SDS011;11630;42.660;23.292;2022-11-20T05:11:38;1.77;;;1.00;;
22929;SDS011;11630;42.660;23.292;2022-11-20T05:14:08;3.87;;;0.90;;
22929;SDS011;11630;42.660;23.292;2022-11-20T05:16:39;1.23;;;1.13;;
22929;SDS011;11630;42.660;23.292;2022-11-20T05:19:10;3.23;;;0.80;;
22929;SDS011;11630;42.660;23.292;2022-11-20T05:21:41;1.80;;;0.80;;
22929;SDS011;11630;42.660;23.292;2022-11-20T05:24:11;2.67;;;0.80;;
22929;SDS011;11630;42.660;23.292;2022-11-20T05:26:42;1.47;;;0.80;;
22929;SDS011;11630;42.660;23.292;2022-11-20T05:29:13;4.97;;;1.23;;
22929;SDS011;11630;42.660;23.292;2022-11-20T05:31:43;2.43;;;0.87;;
22929;SDS011;11630;42.660;23.292;2022-11-20T05:34:14;2.73;;;0.93;;
22929;SDS011;11630;42.660;23.292;2022-11-20T05:36:45;0.60;;;0.60;;
22929;SDS011;11630;42.660;23.292;2022-11-20T05:39:16;1.80;;;1.27;;
22929;SDS011;11630;42.660;23.292;2022-11-20T05:41:53;0.70;;;0.70;;
22929;SDS011;11630;42.660;23.292;2022-11-20T05:44:54;1.90;;;0.90;;
22929;SDS011;11630;42.660;23.292;2022-11-20T05:47:31;5.50;;;1.43;;
22929;SDS011;11630;42.660;23.292;2022-11-20T05:50:03;2.10;;;1.10;;
22929;SDS011;11630;42.660;23.292;2022-11-20T05:52:35;3.83;;;1.03;;
22929;SDS011;11630;42.660;23.292;2022-11-20T05:55:09;4.93;;;1.00;;
22929;SDS011;11630;42.660;23.292;2022-11-20T05:57:39;0.93;;;0.93;;
22929;SDS011;11630;42.660;23.292;2022-11-20T06:00:10;2.60;;;0.93;;
22929;SDS011;11630;42.660;23.292;2022-11-20T06:02:40;2.87;;;1.20;;
22929;SDS011;11630;42.660;23.292;2022-11-20T06:05:11;2.90;;;1.20;;
22929;SDS011;11630;42.660;23.292;2022-11-20T06:07:42;3.93;;;1.67;;
22929;SDS011;11630;42.660;23.292;2022-11-20T06:10:13;2.90;;;1.20;;
22929;SDS011;11630;42.660;23.292;2022-11-20T06:12:44;3.13;;;1.10;;
22929;SDS011;11630;42.660;23.292;2022-11-20T06:15:15;2.50;;;0.90;;
22929;SDS011;11630;42.660;23.292;2022-11-20T06:17:45;9.10;;;1.40;;
22929;SDS011;11630;42.660;23.292;2022-11-20T06:20:17;5.43;;;1.57;;
22929;SDS011;11630;42.660;23.292;2022-11-20T06:22:48;3.93;;;1.33;;
22929;SDS011;11630;42.660;23.292;2022-11-20T06:25:19;4.63;;;1.17;;
22929;SDS011;11630;42.660;23.292;2022-11-20T06:27:49;4.97;;;1.00;;
22929;SDS011;11630;42.660;23.292;2022-11-20T06:30:21;6.33;;;1.17;;
22929;SDS011;11630;42.660;23.292;2022-11-20T06:32:52;4.03;;;1.50;;
22929;SDS011;11630;42.660;23.292;2022-11-20T06:35:23;3.97;;;1.37;;
22929;SDS011;11630;42.660;23.292;2022-11-20T06:37:53;1.03;;;0.77;;
22929;SDS011;11630;42.660;23.292;2022-11-20T06:40:24;6.37;;;1.27;;
22929;SDS011;11630;42.660;23.292;2022-11-20T06:42:55;3.40;;;1.10;;
22929;SDS011;11630;42.660;23.292;2022-11-20T06:45:26;3.90;;;0.70;;
22929;SDS011;11630;42.660;23.292;2022-11-20T06:47:57;2.20;;;0.90;;
22929;SDS011;11630;42.660;23.292;2022-11-20T06:50:27;3.13;;;1.10;;
22929;SDS011;11630;42.660;23.292;2022-11-20T06:53:00;2.93;;;0.50;;
22929;SDS011;11630;42.660;23.292;2022-11-20T06:55:32;5.07;;;1.20;;
22929;SDS011;11630;42.660;23.292;2022-11-20T06:58:04;4.67;;;1.53;;
22929;SDS011;11630;42.660;23.292;2022-11-20T07:00:34;2.23;;;0.80;;
22929;SDS011;11630;42.660;23.292;2022-11-20T07:03:04;2.80;;;1.10;;
22929;SDS011;11630;42.660;23.292;2022-11-20T07:05:36;4.77;;;1.07;;
22929;SDS011;11630;42.660;23.292;2022-11-20T07:08:13;2.03;;;1.00;;
22929;SDS011;11630;42.660;23.292;2022-11-20T07:10:43;4.87;;;0.97;;
22929;SDS011;11630;42.660;23.292;2022-11-20T07:13:15;3.10;;;1.13;;
22929;SDS011;11630;42.660;23.292;2022-11-20T07:22:12;1.60;;;1.00;;
22929;SDS011;11630;42.660;23.292;2022-11-20T07:24:42;1.43;;;0.80;;
22929;SDS011;11630;42.660;23.292;2022-11-20T07:27:13;12.17;;;0.80;;
22929;SDS011;11630;42.660;23.292;2022-11-20T07:29:44;1.37;;;0.87;;
22929;SDS011;11630;42.660;23.292;2022-11-20T07:32:16;1.87;;;1.13;;
22929;SDS011;11630;42.660;23.292;2022-11-20T07:34:46;3.77;;;1.70;;
22929;SDS011;11630;42.660;23.292;2022-11-20T07:37:17;0.50;;;0.50;;
22929;SDS011;11630;42.660;23.292;2022-11-20T07:39:48;3.77;;;1.10;;
22929;SDS011;11630;42.660;23.292;2022-11-20T07:42:22;4.87;;;1.23;;
22929;SDS011;11630;42.660;23.292;2022-11-20T07:44:53;3.17;;;1.67;;
22929;SDS011;11630;42.660;23.292;2022-11-20T07:47:24;3.73;;;0.90;;
22929;SDS011;11630;42.660;23.292;2022-11-20T07:49:55;3.87;;;1.00;;
22929;SDS011;11630;42.660;23.292;2022-11-20T07:52:26;5.47;;;1.40;;
22929;SDS011;11630;42.660;23.292;2022-11-20T07:54:56;4.87;;;1.17;;
22929;SDS011;11630;42.660;23.292;2022-11-20T07:57:26;4.40;;;1.40;;
22929;SDS011;11630;42.660;23.292;2022-11-20T08:00:07;13.67;;;2.13;;
22929;SDS011;11630;42.660;23.292;2022-11-20T08:02:39;2.07;;;1.30;;
22929;SDS011;11630;42.660;23.292;2022-11-20T08:05:10;3.90;;;1.50;;
22929;SDS011;11630;42.660;23.292;2022-11-20T08:07:41;4.87;;;1.57;;
22929;SDS011;11630;42.660;23.292;2022-11-20T08:10:13;6.20;;;1.60;;
22929;SDS011;11630;42.660;23.292;2022-11-20T08:12:45;6.40;;;2.10;;
22929;SDS011;11630;42.660;23.292;2022-11-20T08:15:33;14.43;;;1.93;;
22929;SDS011;11630;42.660;23.292;2022-11-20T08:18:11;5.17;;;1.80;;
22929;SDS011;11630;42.660;23.292;2022-11-20T08:20:41;12.40;;;2.37;;
22929;SDS011;11630;42.660;23.292;2022-11-20T08:23:10;5.50;;;1.30;;
22929;SDS011;11630;42.660;23.292;2022-11-20T08:25:48;7.03;;;2.10;;
22929;SDS011;11630;42.660;23.292;2022-11-20T08:28:17;6.03;;;1.70;;
22929;SDS011;11630;42.660;23.292;2022-11-20T08:30:48;9.70;;;1.77;;
22929;SDS011;11630;42.660;23.292;2022-11-20T08:33:19;13.70;;;2.30;;
22929;SDS011;11630;42.660;23.292;2022-11-20T08:35:50;4.43;;;1.73;;
22929;SDS011;11630;42.660;23.292;2022-11-20T08:38:22;4.40;;;1.30;;
22929;SDS011;11630;42.660;23.292;2022-11-20T08:40:55;7.40;;;1.77;;
22929;SDS011;11630;42.660;23.292;2022-11-20T08:43:43;3.70;;;1.13;;
22929;SDS011;11630;42.660;23.292;2022-11-20T08:46:14;3.70;;;1.57;;
22929;SDS011;11630;42.660;23.292;2022-11-20T08:48:45;8.50;;;2.37;;
22929;SDS011;11630;42.660;23.292;2022-11-20T08:51:14;4.27;;;2.20;;
22929;SDS011;11630;42.660;23.292;2022-11-20T08:53:45;8.00;;;2.60;;
22929;SDS011;11630;42.660;23.292;2022-11-20T08:56:16;4.43;;;2.40;;
22929;SDS011;11630;42.660;23.292;2022-11-20T08:58:49;8.40;;;3.23;;
22929;SDS011;11630;42.660;23.292;2022-11-20T09:01:20;7.90;;;2.90;;
22929;SDS011;11630;42.660;23.292;2022-11-20T09:03:51;5.67;;;3.03;;
22929;SDS011;11630;42.660;23.292;2022-11-20T09:06:22;4.97;;;2.60;;
22929;SDS011;11630;42.660;23.292;2022-11-20T09:08:53;4.00;;;2.43;;
22929;SDS011;11630;42.660;23.292;2022-11-20T09:11:24;8.30;;;2.33;;
22929;SDS011;11630;42.660;23.292;2022-11-20T09:13:53;13.80;;;2.80;;
22929;SDS011;11630;42.660;23.292;2022-11-20T09:16:24;8.90;;;2.53;;
22929;SDS011;11630;42.660;23.292;2022-11-20T09:18:55;2.90;;;2.17;;
22929;SDS011;11630;42.660;23.292;2022-11-20T09:21:28;6.13;;;2.30;;
22929;SDS011;11630;42.660;23.292;2022-11-20T09:23:58;1.30;;;1.20;;
22929;SDS011;11630;42.660;23.292;2022-11-20T09:26:30;4.53;;;1.50;;
22929;SDS011;11630;42.660;23.292;2022-11-20T09:29:01;3.97;;;1.37;;
22929;SDS011;11630;42.660;23.292;2022-11-20T09:31:31;2.40;;;0.90;;
22929;SDS011;11630;42.660;23.292;2022-11-20T09:34:02;1.83;;;1.30;;
22929;SDS011;11630;42.660;23.292;2022-11-20T09:36:32;2.00;;;1.10;;
22929;SDS011;11630;42.660;23.292;2022-11-20T09:39:03;3.43;;;1.07;;
22929;SDS011;11630;42.660;23.292;2022-11-20T09:44:27;2.30;;;1.67;;
22929;SDS011;11630;42.660;23.292;2022-11-20T09:47:08;6.97;;;1.37;;
22929;SDS011;11630;42.660;23.292;2022-11-20T09:49:53;7.00;;;1.97;;
22929;SDS011;11630;42.660;23.292;2022-11-20T09:55:12;2.77;;;1.33;;
22929;SDS011;11630;42.660;23.292;2022-11-20T09:57:44;4.90;;;1.60;;
22929;SDS011;11630;42.660;23.292;2022-11-20T10:00:16;6.90;;;2.63;;
22929;SDS011;11630;42.660;23.292;2022-11-20T10:03:00;2.47;;;1.97;;
22929;SDS011;11630;42.660;23.292;2022-11-20T10:05:40;4.57;;;2.30;;
22929;SDS011;11630;42.660;23.292;2022-11-20T10:08:34;8.47;;;3.73;;
22929;SDS011;11630;42.660;23.292;2022-11-20T10:13:46;4.37;;;2.30;;
22929;SDS011;11630;42.660;23.292;2022-11-20T10:21:58;10.77;;;2.23;;
22929;SDS011;11630;42.660;23.292;2022-11-20T10:24:52;7.17;;;2.70;;
22929;SDS011;11630;42.660;23.292;2022-11-20T10:30:17;9.27;;;3.20;;
22929;SDS011;11630;42.660;23.292;2022-11-20T10:33:03;5.43;;;2.80;;
22929;SDS011;11630;42.660;23.292;2022-11-20T10:38:01;8.13;;;3.00;;
22929;SDS011;11630;42.660;23.292;2022-11-20T10:43:10;8.47;;;3.80;;
22929;SDS011;11630;42.660;23.292;2022-11-20T10:48:26;8.33;;;2.90;;
22929;SDS011;11630;42.660;23.292;2022-11-20T10:53:53;7.23;;;3.70;;
22929;SDS011;11630;42.660;23.292;2022-11-20T10:59:04;8.57;;;3.53;;
22929;SDS011;11630;42.660;23.292;2022-11-20T11:01:41;11.47;;;4.00;;
22929;SDS011;11630;42.660;23.292;2022-11-20T11:07:05;12.80;;;4.93;;
22929;SDS011;11630;42.660;23.292;2022-11-20T11:09:54;6.13;;;3.43;;
22929;SDS011;11630;42.660;23.292;2022-11-20T11:12:25;11.03;;;4.50;;
22929;SDS011;11630;42.660;23.292;2022-11-20T11:14:57;2.90;;;1.73;;
22929;SDS011;11630;42.660;23.292;2022-11-20T11:17:32;1.83;;;1.10;;
22929;SDS011;11630;42.660;23.292;2022-11-20T11:22:43;0.60;;;0.60;;
22929;SDS011;11630;42.660;23.292;2022-11-20T11:28:01;4.07;;;1.07;;
22929;SDS011;11630;42.660;23.292;2022-11-20T11:30:43;0.80;;;0.80;;
22929;SDS011;11630;42.660;23.292;2022-11-20T11:33:24;1.97;;;1.00;;
22929;SDS011;11630;42.660;23.292;2022-11-20T11:36:03;1.03;;;0.77;;
22929;SDS011;11630;42.660;23.292;2022-11-20T11:38:38;2.87;;;0.90;;
22929;SDS011;11630;42.660;23.292;2022-11-20T11:41:22;0.97;;;0.93;;
22929;SDS011;11630;42.660;23.292;2022-11-20T11:44:27;1.53;;;1.23;;
22929;SDS011;11630;42.660;23.292;2022-11-20T11:46:38;2.27;;;0.90;;
22929;SDS011;11630;42.660;23.292;2022-11-20T11:52:08;4.50;;;1.17;;
22929;SDS011;11630;42.660;23.292;2022-11-20T11:54:55;1.40;;;0.97;;
22929;SDS011;11630;42.660;23.292;2022-11-20T11:57:37;5.77;;;1.27;;
22929;SDS011;11630;42.660;23.292;2022-11-20T12:00:14;6.30;;;1.57;;
22929;SDS011;11630;42.660;23.292;2022-11-20T12:05:36;2.23;;;1.40;;
22929;SDS011;11630;42.660;23.292;2022-11-20T12:10:55;4.93;;;1.63;;
22929;SDS011;11630;42.660;23.292;2022-11-20T12:16:03;2.50;;;0.60;;
22929;SDS011;11630;42.660;23.292;2022-11-20T12:18:34;1.60;;;0.90;;
22929;SDS011;11630;42.660;23.292;2022-11-20T12:30:09;2.10;;;0.90;;
22929;SDS011;11630;42.660;23.292;2022-11-20T12:32:46;0.53;;;0.53;;
22929;SDS011;11630;42.660;23.292;2022-11-20T12:38:28;2.63;;;1.07;;
22929;SDS011;11630;42.660;23.292;2022-11-20T12:43:49;2.43;;;1.27;;
22929;SDS011;11630;42.660;23.292;2022-11-20T12:46:45;7.87;;;1.10;;
22929;SDS011;11630;42.660;23.292;2022-11-20T12:52:07;5.77;;;1.47;;
22929;SDS011;11630;42.660;23.292;2022-11-20T12:54:45;1.93;;;1.03;;
22929;SDS011;11630;42.660;23.292;2022-11-20T13:08:30;9.87;;;2.50;;
22929;SDS011;11630;42.660;23.292;2022-11-20T13:11:07;5.53;;;2.67;;
22929;SDS011;11630;42.660;23.292;2022-11-20T13:13:59;9.87;;;2.43;;
22929;SDS011;11630;42.660;23.292;2022-11-20T13:16:33;4.63;;;2.70;;
22929;SDS011;11630;42.660;23.292;2022-11-20T13:19:04;5.13;;;2.43;;
22929;SDS011;11630;42.660;23.292;2022-11-20T13:21:37;8.13;;;3.83;;
22929;SDS011;11630;42.660;23.292;2022-11-20T13:29:44;6.80;;;3.53;;
22929;SDS011;11630;42.660;23.292;2022-11-20T13:32:16;5.90;;;2.57;;
22929;SDS011;11630;42.660;23.292;2022-11-20T13:34:57;5.63;;;3.30;;
22929;SDS011;11630;42.660;23.292;2022-11-20T13:37:29;10.00;;;3.80;;
22929;SDS011;11630;42.660;23.292;2022-11-20T13:40:11;10.50;;;4.13;;
22929;SDS011;11630;42.660;23.292;2022-11-20T13:42:44;5.23;;;3.00;;
22929;SDS011;11630;42.660;23.292;2022-11-20T13:45:25;8.13;;;3.40;;
22929;SDS011;11630;42.660;23.292;2022-11-20T13:47:55;9.80;;;3.10;;
22929;SDS011;11630;42.660;23.292;2022-11-20T13:50:48;5.00;;;3.20;;
22929;SDS011;11630;42.660;23.292;2022-11-20T13:55:58;7.37;;;4.13;;
22929;SDS011;11630;42.660;23.292;2022-11-20T13:59:00;6.23;;;3.63;;
22929;SDS011;11630;42.660;23.292;2022-11-20T14:01:36;7.23;;;3.90;;
22929;SDS011;11630;42.660;23.292;2022-11-20T14:04:08;5.70;;;3.97;;
22929;SDS011;11630;42.660;23.292;2022-11-20T14:06:43;8.63;;;4.00;;
22929;SDS011;11630;42.660;23.292;2022-11-20T14:09:28;9.27;;;4.13;;
22929;SDS011;11630;42.660;23.292;2022-11-20T14:12:01;8.70;;;4.57;;
22929;SDS011;11630;42.660;23.292;2022-11-20T14:14:33;9.47;;;3.97;;
22929;SDS011;11630;42.660;23.292;2022-11-20T14:17:08;11.27;;;4.77;;
22929;SDS011;11630;42.660;23.292;2022-11-20T14:19:39;11.33;;;5.67;;
22929;SDS011;11630;42.660;23.292;2022-11-20T14:25:03;5.33;;;2.83;;
22929;SDS011;11630;42.660;23.292;2022-11-20T14:27:57;5.37;;;2.63;;
22929;SDS011;11630;42.660;23.292;2022-11-20T14:30:37;4.70;;;2.90;;
22929;SDS011;11630;42.660;23.292;2022-11-20T14:33:12;7.50;;;2.50;;
22929;SDS011;11630;42.660;23.292;2022-11-20T14:35:51;2.83;;;2.50;;
22929;SDS011;11630;42.660;23.292;2022-11-20T14:38:22;7.13;;;3.43;;
22929;SDS011;11630;42.660;23.292;2022-11-20T14:41:19;3.17;;;2.57;;
22929;SDS011;11630;42.660;23.292;2022-11-20T14:43:58;8.17;;;2.97;;
22929;SDS011;11630;42.660;23.292;2022-11-20T14:46:29;3.67;;;2.60;;
22929;SDS011;11630;42.660;23.292;2022-11-20T14:49:02;5.33;;;2.23;;
22929;SDS011;11630;42.660;23.292;2022-11-20T14:51:36;8.50;;;2.90;;
22929;SDS011;11630;42.660;23.292;2022-11-20T14:54:14;4.33;;;2.30;;
22929;SDS011;11630;42.660;23.292;2022-11-20T14:57:05;2.50;;;2.17;;
22929;SDS011;11630;42.660;23.292;2022-11-20T14:59:34;1.93;;;1.80;;
22929;SDS011;11630;42.660;23.292;2022-11-20T15:02:05;9.97;;;2.63;;
22929;SDS011;11630;42.660;23.292;2022-11-20T15:04:46;3.27;;;2.10;;
22929;SDS011;11630;42.660;23.292;2022-11-20T15:07:27;4.70;;;2.90;;
22929;SDS011;11630;42.660;23.292;2022-11-20T15:09:59;3.37;;;2.70;;
22929;SDS011;11630;42.660;23.292;2022-11-20T15:12:34;4.67;;;2.20;;
22929;SDS011;11630;42.660;23.292;2022-11-20T15:15:06;5.17;;;2.53;;
22929;SDS011;11630;42.660;23.292;2022-11-20T15:17:36;2.70;;;2.23;;
22929;SDS011;11630;42.660;23.292;2022-11-20T15:20:11;3.20;;;2.50;;
22929;SDS011;11630;42.660;23.292;2022-11-20T15:22:41;2.60;;;2.40;;
22929;SDS011;11630;42.660;23.292;2022-11-20T15:25:16;5.20;;;3.50;;
22929;SDS011;11630;42.660;23.292;2022-11-20T15:27:43;3.70;;;3.00;;
22929;SDS011;11630;42.660;23.292;2022-11-20T15:30:19;6.37;;;2.70;;
22929;SDS011;11630;42.660;23.292;2022-11-20T15:33:11;6.33;;;3.17;;
22929;SDS011;11630;42.660;23.292;2022-11-20T15:35:40;4.60;;;2.80;;
22929;SDS011;11630;42.660;23.292;2022-11-20T15:38:12;2.60;;;2.37;;
22929;SDS011;11630;42.660;23.292;2022-11-20T15:40:43;10.00;;;6.13;;
22929;SDS011;11630;42.660;23.292;2022-11-20T15:43:13;5.83;;;3.50;;
22929;SDS011;11630;42.660;23.292;2022-11-20T15:45:45;6.00;;;3.20;;
22929;SDS011;11630;42.660;23.292;2022-11-20T15:48:24;8.03;;;3.83;;
22929;SDS011;11630;42.660;23.292;2022-11-20T15:51:06;10.37;;;3.40;;
22929;SDS011;11630;42.660;23.292;2022-11-20T15:53:36;5.60;;;3.17;;
22929;SDS011;11630;42.660;23.292;2022-11-20T15:56:11;4.03;;;2.40;;
22929;SDS011;11630;42.660;23.292;2022-11-20T15:58:42;5.10;;;2.90;;
22929;SDS011;11630;42.660;23.292;2022-11-20T16:01:14;5.70;;;2.67;;
22929;SDS011;11630;42.660;23.292;2022-11-20T16:03:46;3.77;;;2.87;;
22929;SDS011;11630;42.660;23.292;2022-11-20T16:06:20;8.53;;;3.17;;
22929;SDS011;11630;42.660;23.292;2022-11-20T16:08:50;4.13;;;2.63;;
22929;SDS011;11630;42.660;23.292;2022-11-20T16:11:21;4.40;;;2.33;;
22929;SDS011;11630;42.660;23.292;2022-11-20T16:13:52;4.97;;;2.07;;
22929;SDS011;11630;42.660;23.292;2022-11-20T16:16:39;5.23;;;2.33;;
22929;SDS011;11630;42.660;23.292;2022-11-20T16:19:13;2.63;;;2.40;;
22929;SDS011;11630;42.660;23.292;2022-11-20T16:21:44;2.90;;;2.10;;
22929;SDS011;11630;42.660;23.292;2022-11-20T16:24:16;3.20;;;2.30;;
22929;SDS011;11630;42.660;23.292;2022-11-20T16:26:49;6.37;;;2.70;;
22929;SDS011;11630;42.660;23.292;2022-11-20T16:29:20;7.43;;;2.60;;
22929;SDS011;11630;42.660;23.292;2022-11-20T16:31:52;3.27;;;2.30;;
22929;SDS011;11630;42.660;23.292;2022-11-20T16:34:23;3.03;;;2.30;;
22929;SDS011;11630;42.660;23.292;2022-11-20T16:36:54;4.20;;;2.33;;
22929;SDS011;11630;42.660;23.292;2022-11-20T16:39:25;4.83;;;2.27;;
22929;SDS011;11630;42.660;23.292;2022-11-20T16:41:56;3.07;;;1.83;;
22929;SDS011;11630;42.660;23.292;2022-11-20T16:44:27;3.93;;;2.60;;
22929;SDS011;11630;42.660;23.292;2022-11-20T16:46:58;4.83;;;2.23;;
22929;SDS011;11630;42.660;23.292;2022-11-20T16:49:29;4.73;;;2.87;;
22929;SDS011;11630;42.660;23.292;2022-11-20T16:51:59;3.73;;;2.43;;